Time;durP1;ratioP1;P1;durP2;ratioP2;P2;SDS_P1;SDS_P2;PMS_P1;PMS_P2;Temp;Humidity;BMP_temperature;BMP_pressure;BME280_temperature;BME280_humidity;BME280_pressure;Samples;Min_cycle;Max_cycle;Signal;HPM_P1;HPM_P2
2023/09/16 00:00:50;;;;;;;15.63;11.57;;;;;;;;;;5075004;28;20501;-77
2023/09/16 00:03:18;;;;;;;14.53;11.93;;;;;;;;;;5075071;28;20946;-76
2023/09/16 00:05:45;;;;;;;14.37;11.03;;;;;;;;;;5075151;28;20459;-76
2023/09/16 00:08:13;;;;;;;13.70;11.73;;;;;;;;;;5075009;28;20448;-76
2023/09/16 00:10:41;;;;;;;14.93;11.57;;;;;;;;;;5075314;28;20474;-76
2023/09/16 00:13:08;;;;;;;12.83;10.70;;;;;;;;;;5074892;28;20455;-77
2023/09/16 00:15:35;;;;;;;15.10;13.30;;;;;;;;;;5075135;28;20447;-77
2023/09/16 00:18:02;;;;;;;15.83;12.33;;;;;;;;;;5074872;28;20455;-77
2023/09/16 00:20:29;;;;;;;18.80;12.60;;;;;;;;;;5074607;28;20863;-76
2023/09/16 00:22:57;;;;;;;16.40;11.80;;;;;;;;;;5074821;28;20447;-77
2023/09/16 00:25:26;;;;;;;12.77;10.93;;;;;;;;;;5086744;28;20794;-76
2023/09/16 00:27:54;;;;;;;13.77;10.90;;;;;;;;;;5094853;28;20552;-77
2023/09/16 00:30:21;;;;;;;13.83;11.50;;;;;;;;;;5074518;28;20993;-76
2023/09/16 00:32:48;;;;;;;18.47;12.57;;;;;;;;;;5074997;28;20451;-76
2023/09/16 00:35:15;;;;;;;13.57;12.10;;;;;;;;;;5074547;28;20463;-77
2023/09/16 00:37:43;;;;;;;16.03;12.77;;;;;;;;;;5074395;28;20980;-76
2023/09/16 00:40:11;;;;;;;13.67;11.73;;;;;;;;;;5074618;28;20565;-76
2023/09/16 00:42:40;;;;;;;14.13;11.53;;;;;;;;;;5074801;28;20536;-76
2023/09/16 00:45:10;;;;;;;16.60;12.60;;;;;;;;;;5082834;28;20459;-76
2023/09/16 00:47:37;;;;;;;15.87;11.53;;;;;;;;;;5080445;28;20857;-76
2023/09/16 00:50:05;;;;;;;16.13;13.23;;;;;;;;;;5089509;28;20476;-76
2023/09/16 00:52:33;;;;;;;16.30;12.60;;;;;;;;;;5089521;28;20481;-76
2023/09/16 00:55:00;;;;;;;17.70;13.60;;;;;;;;;;5074692;28;20497;-76
2023/09/16 00:57:29;;;;;;;17.13;13.63;;;;;;;;;;5081593;28;20844;-76
2023/09/16 00:59:58;;;;;;;17.27;12.57;;;;;;;;;;5082235;28;20502;-78
2023/09/16 01:02:25;;;;;;;16.70;12.63;;;;;;;;;;5086564;28;20461;-76
2023/09/16 01:04:53;;;;;;;15.43;13.07;;;;;;;;;;5077940;28;20467;-76
2023/09/16 01:07:22;;;;;;;16.77;13.10;;;;;;;;;;5074041;28;20509;-76
2023/09/16 01:09:49;;;;;;;19.23;14.77;;;;;;;;;;5082341;28;20468;-77
2023/09/16 01:12:17;;;;;;;15.67;13.47;;;;;;;;;;5084900;28;20458;-76
2023/09/16 01:14:44;;;;;;;14.70;12.73;;;;;;;;;;5094367;28;20790;-76
2023/09/16 01:17:16;;;;;;;16.00;13.47;;;;;;;;;;5077228;28;20455;-76
2023/09/16 01:19:46;;;;;;;13.37;11.53;;;;;;;;;;5085557;28;20471;-76
2023/09/16 01:22:14;;;;;;;14.63;12.37;;;;;;;;;;5094462;28;20913;-76
2023/09/16 01:24:41;;;;;;;15.67;13.27;;;;;;;;;;5079421;28;20456;-76
2023/09/16 01:27:10;;;;;;;15.80;10.73;;;;;;;;;;5073612;28;20460;-76
2023/09/16 01:29:37;;;;;;;14.70;11.50;;;;;;;;;;5073363;28;20468;-76
2023/09/16 01:32:07;;;;;;;20.47;13.77;;;;;;;;;;5073519;28;20957;-76
2023/09/16 01:34:38;;;;;;;15.00;13.23;;;;;;;;;;5078591;28;20454;-76
2023/09/16 01:37:07;;;;;;;15.73;13.30;;;;;;;;;;5086667;28;20459;-76
2023/09/16 01:39:36;;;;;;;14.67;12.43;;;;;;;;;;5081169;28;20532;-76
2023/09/16 01:42:03;;;;;;;13.20;11.73;;;;;;;;;;5073401;28;20452;-75
2023/09/16 01:44:32;;;;;;;15.00;12.13;;;;;;;;;;5073273;28;20509;-76
2023/09/16 01:46:59;;;;;;;15.33;12.73;;;;;;;;;;5073294;28;20501;-76
2023/09/16 01:49:26;;;;;;;20.63;11.80;;;;;;;;;;5072377;28;20965;-76
2023/09/16 01:51:53;;;;;;;14.97;11.63;;;;;;;;;;5073331;28;20454;-76
2023/09/16 01:54:20;;;;;;;13.10;11.70;;;;;;;;;;5093367;28;20455;-76
2023/09/16 01:56:47;;;;;;;14.20;12.30;;;;;;;;;;5085001;28;20841;-75
2023/09/16 01:59:15;;;;;;;14.20;11.20;;;;;;;;;;5073617;28;20451;-76
2023/09/16 02:01:45;;;;;;;18.30;11.80;;;;;;;;;;5079336;28;20849;-76
2023/09/16 02:04:12;;;;;;;15.47;13.40;;;;;;;;;;5093076;28;20462;-75
2023/09/16 02:06:41;;;;;;;15.63;12.80;;;;;;;;;;5078894;28;20846;-75
2023/09/16 02:09:09;;;;;;;15.00;12.80;;;;;;;;;;5072782;28;20535;-76
2023/09/16 02:11:36;;;;;;;15.90;11.80;;;;;;;;;;5072797;28;20478;-75
2023/09/16 02:14:04;;;;;;;12.27;10.70;;;;;;;;;;5072788;28;20448;-77
2023/09/16 02:16:31;;;;;;;14.67;12.77;;;;;;;;;;5072752;28;20542;-76
2023/09/16 02:19:00;;;;;;;13.87;12.00;;;;;;;;;;5080914;28;20550;-76
2023/09/16 02:21:27;;;;;;;14.93;12.00;;;;;;;;;;5072650;28;20551;-76
2023/09/16 02:23:55;;;;;;;14.90;12.27;;;;;;;;;;5072977;28;20474;-76
2023/09/16 02:26:22;;;;;;;16.20;11.90;;;;;;;;;;5072807;28;20447;-76
2023/09/16 02:28:49;;;;;;;20.00;12.83;;;;;;;;;;5072570;28;20463;-76
2023/09/16 02:31:16;;;;;;;16.83;11.97;;;;;;;;;;5081118;28;20467;-76
2023/09/16 02:33:43;;;;;;;16.23;12.07;;;;;;;;;;5079303;28;20459;-75
2023/09/16 02:36:12;;;;;;;14.27;12.47;;;;;;;;;;5074190;28;20463;-76
2023/09/16 02:38:39;;;;;;;15.53;13.83;;;;;;;;;;5072815;28;20943;-76
2023/09/16 02:41:06;;;;;;;17.47;13.30;;;;;;;;;;5080866;28;20502;-75
2023/09/16 02:43:33;;;;;;;15.93;12.17;;;;;;;;;;5077648;28;20454;-76
2023/09/16 02:46:00;;;;;;;17.57;13.20;;;;;;;;;;5075999;28;20795;-77
2023/09/16 02:48:27;;;;;;;20.20;13.67;;;;;;;;;;5080107;28;20440;-76
2023/09/16 02:50:54;;;;;;;16.63;13.73;;;;;;;;;;5072640;28;20990;-75
2023/09/16 02:53:23;;;;;;;18.47;13.73;;;;;;;;;;5059484;28;20447;-76
2023/09/16 02:55:50;;;;;;;15.90;13.40;;;;;;;;;;5092720;28;20446;-75
2023/09/16 02:58:17;;;;;;;21.07;14.20;;;;;;;;;;5089969;28;20457;-76
2023/09/16 03:00:46;;;;;;;16.13;12.83;;;;;;;;;;5074279;28;20538;-76
2023/09/16 03:03:13;;;;;;;17.00;13.47;;;;;;;;;;5076097;28;20509;-77
2023/09/16 03:05:45;;;;;;;22.70;14.67;;;;;;;;;;5076313;28;20847;-75
2023/09/16 03:08:12;;;;;;;22.77;15.80;;;;;;;;;;5076412;28;20562;-76
2023/09/16 03:10:40;;;;;;;21.33;14.53;;;;;;;;;;5090296;28;20477;-76
2023/09/16 03:13:07;;;;;;;22.33;16.20;;;;;;;;;;5087953;28;20807;-76
2023/09/16 03:15:36;;;;;;;25.00;16.47;;;;;;;;;;5082788;28;20964;-76
2023/09/16 03:18:04;;;;;;;26.37;16.23;;;;;;;;;;5075977;28;20461;-76
2023/09/16 03:20:31;;;;;;;20.37;14.60;;;;;;;;;;5080365;28;20494;-76
2023/09/16 03:22:58;;;;;;;23.63;14.20;;;;;;;;;;5096234;28;20941;-76
2023/09/16 03:25:25;;;;;;;18.30;14.97;;;;;;;;;;5075917;28;20440;-76
2023/09/16 03:27:53;;;;;;;19.53;14.13;;;;;;;;;;5075980;28;20949;-75
2023/09/16 03:30:21;;;;;;;17.03;12.90;;;;;;;;;;5075615;28;20474;-76
2023/09/16 03:32:48;;;;;;;16.60;13.40;;;;;;;;;;5076004;28;20924;-76
2023/09/16 03:35:15;;;;;;;14.00;12.50;;;;;;;;;;5092436;28;20532;-75
2023/09/16 03:37:42;;;;;;;19.37;13.27;;;;;;;;;;5075765;28;20448;-76
2023/09/16 03:40:09;;;;;;;15.50;13.27;;;;;;;;;;5083574;28;20475;-76
2023/09/16 03:42:36;;;;;;;18.93;13.50;;;;;;;;;;5083851;28;20491;-75
2023/09/16 03:45:05;;;;;;;18.33;14.60;;;;;;;;;;5075450;28;20818;-76
2023/09/16 03:47:32;;;;;;;18.60;12.63;;;;;;;;;;5075493;28;20451;-75
2023/09/16 03:49:59;;;;;;;16.63;13.00;;;;;;;;;;5091821;28;20475;-77
2023/09/16 03:52:27;;;;;;;17.50;13.97;;;;;;;;;;5075341;28;20456;-76
2023/09/16 03:54:54;;;;;;;19.83;14.20;;;;;;;;;;5075511;28;20452;-75
2023/09/16 03:57:21;;;;;;;17.03;14.60;;;;;;;;;;5075247;28;20455;-76
2023/09/16 03:59:48;;;;;;;19.00;12.70;;;;;;;;;;5075118;28;20855;-75
2023/09/16 04:02:17;;;;;;;17.93;13.80;;;;;;;;;;5075186;28;20607;-75
2023/09/16 04:04:44;;;;;;;16.60;13.77;;;;;;;;;;5074981;28;20451;-76
2023/09/16 04:07:11;;;;;;;18.90;14.20;;;;;;;;;;5075065;28;20547;-76
2023/09/16 04:09:38;;;;;;;18.17;13.80;;;;;;;;;;5075015;28;20460;-75
2023/09/16 04:12:06;;;;;;;17.30;13.60;;;;;;;;;;5074369;28;20451;-76
2023/09/16 04:14:33;;;;;;;17.50;13.63;;;;;;;;;;5074983;28;20459;-75
2023/09/16 04:17:00;;;;;;;14.60;12.00;;;;;;;;;;5074814;28;20836;-76
2023/09/16 04:19:29;;;;;;;17.37;14.37;;;;;;;;;;5074545;28;20452;-76
2023/09/16 04:21:56;;;;;;;19.53;14.90;;;;;;;;;;5074783;28;20491;-76
2023/09/16 04:24:23;;;;;;;18.10;14.57;;;;;;;;;;5078492;28;20451;-75
2023/09/16 04:26:50;;;;;;;16.83;13.17;;;;;;;;;;5079203;28;20926;-75
2023/09/16 04:29:17;;;;;;;17.83;15.03;;;;;;;;;;5074419;28;20452;-76
2023/09/16 04:31:44;;;;;;;21.23;15.67;;;;;;;;;;5074492;28;20442;-76
2023/09/16 04:34:11;;;;;;;18.73;15.30;;;;;;;;;;5084879;28;20459;-76
2023/09/16 04:36:40;;;;;;;18.07;15.17;;;;;;;;;;5080499;28;20444;-75
2023/09/16 04:39:08;;;;;;;20.60;15.07;;;;;;;;;;5084014;28;20540;-76
2023/09/16 04:41:35;;;;;;;19.60;15.53;;;;;;;;;;5088649;28;20990;-75
2023/09/16 04:44:03;;;;;;;18.37;15.80;;;;;;;;;;5074058;28;20448;-76
2023/09/16 04:46:30;;;;;;;18.87;14.93;;;;;;;;;;5073747;28;20455;-76
2023/09/16 04:48:58;;;;;;;17.33;14.83;;;;;;;;;;5073662;28;20508;-76
2023/09/16 04:51:25;;;;;;;19.00;15.30;;;;;;;;;;5072830;28;20468;-75
2023/09/16 04:53:55;;;;;;;20.93;14.87;;;;;;;;;;5073113;28;20447;-76
2023/09/16 04:56:22;;;;;;;19.43;15.10;;;;;;;;;;5064914;28;20891;-76
2023/09/16 04:58:50;;;;;;;20.27;14.90;;;;;;;;;;5072901;28;20452;-76
2023/09/16 05:01:17;;;;;;;21.03;15.73;;;;;;;;;;5081244;28;20922;-76
2023/09/16 05:03:44;;;;;;;19.27;14.83;;;;;;;;;;5072775;28;20447;-75
2023/09/16 05:06:11;;;;;;;19.00;14.70;;;;;;;;;;5072560;28;20486;-76
2023/09/16 05:08:38;;;;;;;19.43;14.37;;;;;;;;;;5072774;28;20455;-76
2023/09/16 05:11:07;;;;;;;15.43;12.57;;;;;;;;;;5072934;28;20997;-76
2023/09/16 05:13:35;;;;;;;15.63;12.97;;;;;;;;;;5072804;28;20487;-75
2023/09/16 05:16:03;;;;;;;14.00;11.23;;;;;;;;;;5073444;28;20456;-76
2023/09/16 05:18:30;;;;;;;16.43;12.57;;;;;;;;;;5079949;28;21000;-76
2023/09/16 05:20:57;;;;;;;13.97;10.63;;;;;;;;;;5080776;28;20471;-77
2023/09/16 05:23:24;;;;;;;17.53;13.33;;;;;;;;;;5071666;28;20800;-75
2023/09/16 05:25:52;;;;;;;15.50;11.50;;;;;;;;;;5072424;28;20455;-75
2023/09/16 05:28:20;;;;;;;17.93;12.47;;;;;;;;;;5089011;28;20834;-75
2023/09/16 05:30:47;;;;;;;21.07;12.20;;;;;;;;;;5080793;28;20497;-75
2023/09/16 05:33:14;;;;;;;19.30;14.23;;;;;;;;;;5072561;28;20452;-75
2023/09/16 05:35:42;;;;;;;16.53;12.90;;;;;;;;;;5078821;28;20457;-75
2023/09/16 05:38:09;;;;;;;18.70;13.93;;;;;;;;;;5092569;28;20478;-75
2023/09/16 05:40:37;;;;;;;18.37;14.30;;;;;;;;;;5083903;28;20473;-76
2023/09/16 05:43:04;;;;;;;19.00;14.90;;;;;;;;;;5074371;28;20537;-75
2023/09/16 05:45:32;;;;;;;15.93;12.00;;;;;;;;;;5072156;28;20470;-75
2023/09/16 05:48:02;;;;;;;23.03;13.80;;;;;;;;;;5089124;28;20455;-75
2023/09/16 05:50:30;;;;;;;17.67;13.40;;;;;;;;;;5087547;28;20842;-75
2023/09/16 05:52:57;;;;;;;21.00;13.60;;;;;;;;;;5080582;28;20455;-77
2023/09/16 05:55:24;;;;;;;19.03;11.90;;;;;;;;;;5080409;28;20459;-75
2023/09/16 05:57:51;;;;;;;15.90;13.03;;;;;;;;;;5072074;28;20800;-75
2023/09/16 06:00:18;;;;;;;15.53;12.30;;;;;;;;;;5074736;28;20474;-75
2023/09/16 06:02:47;;;;;;;18.63;14.93;;;;;;;;;;5076906;28;21009;-75
2023/09/16 06:05:14;;;;;;;14.97;11.93;;;;;;;;;;5071771;28;20464;-75
2023/09/16 06:07:41;;;;;;;13.83;11.50;;;;;;;;;;5072201;28;20504;-75
2023/09/16 06:10:09;;;;;;;11.07;8.57;;;;;;;;;;5071911;28;20950;-75
2023/09/16 06:12:36;;;;;;;10.40;7.90;;;;;;;;;;5080426;28;20860;-75
2023/09/16 06:15:03;;;;;;;9.80;7.80;;;;;;;;;;5071694;28;20479;-76
2023/09/16 06:17:30;;;;;;;9.43;7.60;;;;;;;;;;5071751;28;20448;-75
2023/09/16 06:19:59;;;;;;;8.63;7.20;;;;;;;;;;5071428;28;20472;-76
2023/09/16 06:22:26;;;;;;;7.87;7.17;;;;;;;;;;5075628;28;20494;-76
2023/09/16 06:24:53;;;;;;;7.37;6.73;;;;;;;;;;5084135;28;20949;-75
2023/09/16 06:27:20;;;;;;;7.97;7.00;;;;;;;;;;5072020;28;20458;-76
2023/09/16 06:29:48;;;;;;;8.20;7.47;;;;;;;;;;5071327;28;20487;-75
2023/09/16 06:32:16;;;;;;;7.07;6.47;;;;;;;;;;5074151;28;20835;-76
2023/09/16 06:34:43;;;;;;;12.50;7.30;;;;;;;;;;5085954;28;20463;-75
2023/09/16 06:37:11;;;;;;;8.33;7.57;;;;;;;;;;5075721;28;21003;-75
2023/09/16 06:39:40;;;;;;;6.90;6.00;;;;;;;;;;5081449;28;20476;-75
2023/09/16 06:42:07;;;;;;;9.63;6.30;;;;;;;;;;5077859;28;20487;-76
2023/09/16 06:44:34;;;;;;;9.00;8.03;;;;;;;;;;5075746;28;20456;-76
2023/09/16 06:47:01;;;;;;;8.17;7.40;;;;;;;;;;5084846;28;20453;-77
2023/09/16 06:49:28;;;;;;;14.80;7.37;;;;;;;;;;5095844;28;20945;-76
2023/09/16 06:51:55;;;;;;;7.77;7.07;;;;;;;;;;5079501;28;20449;-76
2023/09/16 06:54:24;;;;;;;7.50;6.90;;;;;;;;;;5075815;28;20462;-76
2023/09/16 06:56:51;;;;;;;11.53;7.40;;;;;;;;;;5075929;28;20500;-76
2023/09/16 06:59:18;;;;;;;9.30;6.73;;;;;;;;;;5078175;28;20458;-77
2023/09/16 07:01:45;;;;;;;7.43;6.23;;;;;;;;;;5080880;28;20840;-76
2023/09/16 07:04:12;;;;;;;7.90;6.80;;;;;;;;;;5075392;28;20452;-76
2023/09/16 07:06:39;;;;;;;8.27;6.40;;;;;;;;;;5075798;28;20474;-76
2023/09/16 07:09:06;;;;;;;7.30;6.70;;;;;;;;;;5075300;28;20454;-77
2023/09/16 07:11:35;;;;;;;9.37;7.40;;;;;;;;;;5080409;28;20479;-76
2023/09/16 07:14:03;;;;;;;8.47;6.93;;;;;;;;;;5078069;28;20484;-76
2023/09/16 07:16:38;;;;;;;8.03;7.23;;;;;;;;;;5079895;28;20549;-76
2023/09/16 07:19:05;;;;;;;6.67;5.70;;;;;;;;;;5077254;28;20451;-77
2023/09/16 07:21:32;;;;;;;7.33;6.60;;;;;;;;;;5075288;28;20499;-76
2023/09/16 07:24:01;;;;;;;9.47;7.47;;;;;;;;;;5075078;28;20447;-76
2023/09/16 07:26:28;;;;;;;7.60;6.97;;;;;;;;;;5074961;28;20463;-76
2023/09/16 07:28:57;;;;;;;7.63;6.93;;;;;;;;;;5091363;28;20450;-76
2023/09/16 07:31:24;;;;;;;7.40;6.70;;;;;;;;;;5082765;28;20473;-76
2023/09/16 07:33:51;;;;;;;6.47;5.87;;;;;;;;;;5074902;28;20463;-76
2023/09/16 07:36:19;;;;;;;7.17;5.97;;;;;;;;;;5074696;28;20467;-76
2023/09/16 07:38:46;;;;;;;7.10;6.07;;;;;;;;;;5074894;28;20447;-76
2023/09/16 07:41:13;;;;;;;6.73;5.97;;;;;;;;;;5085180;28;20866;-76
2023/09/16 07:43:40;;;;;;;6.93;6.33;;;;;;;;;;5080544;28;20495;-76
2023/09/16 07:46:08;;;;;;;6.23;5.70;;;;;;;;;;5082693;28;20812;-75
2023/09/16 07:48:35;;;;;;;6.80;6.20;;;;;;;;;;5074061;28;20450;-75
2023/09/16 07:51:02;;;;;;;7.03;6.43;;;;;;;;;;5075199;28;20858;-76
2023/09/16 07:53:30;;;;;;;7.30;6.70;;;;;;;;;;5090383;28;20444;-75
2023/09/16 07:55:57;;;;;;;7.00;6.13;;;;;;;;;;5074670;28;20946;-76
2023/09/16 07:58:24;;;;;;;6.60;6.00;;;;;;;;;;5074444;28;20459;-76
2023/09/16 08:00:53;;;;;;;6.53;5.90;;;;;;;;;;5074245;28;20468;-75
2023/09/16 08:03:22;;;;;;;6.60;6.00;;;;;;;;;;5074142;28;20504;-75
2023/09/16 08:05:50;;;;;;;6.03;5.53;;;;;;;;;;5074229;28;20466;-75
2023/09/16 08:08:17;;;;;;;5.83;5.30;;;;;;;;;;5074320;28;20581;-76
2023/09/16 08:10:49;;;;;;;6.40;5.80;;;;;;;;;;5074326;28;20486;-75
2023/09/16 08:13:17;;;;;;;6.90;6.30;;;;;;;;;;5074234;28;20879;-76
2023/09/16 08:15:44;;;;;;;7.00;6.40;;;;;;;;;;5082615;28;20804;-76
2023/09/16 08:18:11;;;;;;;8.13;5.50;;;;;;;;;;5084535;28;20455;-75
2023/09/16 08:20:40;;;;;;;7.13;5.90;;;;;;;;;;5079823;28;20823;-76
2023/09/16 08:23:09;;;;;;;6.57;6.07;;;;;;;;;;5082509;28;20861;-75
2023/09/16 08:25:36;;;;;;;6.80;6.20;;;;;;;;;;5074158;28;20577;-75
2023/09/16 08:28:03;;;;;;;6.70;5.33;;;;;;;;;;5073995;28;20447;-75
2023/09/16 08:30:30;;;;;;;5.60;5.10;;;;;;;;;;5073784;28;20942;-75
2023/09/16 08:32:57;;;;;;;5.90;5.03;;;;;;;;;;5073722;28;20903;-75
2023/09/16 08:35:26;;;;;;;8.93;7.80;;;;;;;;;;5073707;28;20463;-75
2023/09/16 08:37:58;;;;;;;9.10;5.70;;;;;;;;;;5073793;28;20554;-75
2023/09/16 08:40:25;;;;;;;5.63;5.13;;;;;;;;;;5073638;28;20999;-75
2023/09/16 08:43:10;;;;;;;6.33;5.83;;;;;;;;;;5073878;28;20556;-75
2023/09/16 08:45:40;;;;;;;6.60;6.00;;;;;;;;;;5087491;28;20504;-75
2023/09/16 08:48:07;;;;;;;5.93;5.40;;;;;;;;;;5075372;28;20463;-76
2023/09/16 08:50:35;;;;;;;7.47;6.80;;;;;;;;;;5078376;28;20823;-77
2023/09/16 08:53:08;;;;;;;7.67;5.50;;;;;;;;;;5084376;28;20901;-74
2023/09/16 08:55:35;;;;;;;6.17;5.67;;;;;;;;;;5073264;28;20451;-75
2023/09/16 08:58:04;;;;;;;6.00;5.40;;;;;;;;;;5081269;28;20541;-77
2023/09/16 09:00:32;;;;;;;7.67;5.77;;;;;;;;;;5072745;28;20489;-75
2023/09/16 09:02:59;;;;;;;9.70;5.60;;;;;;;;;;5081543;28;20494;-76
2023/09/16 09:05:27;;;;;;;6.90;6.20;;;;;;;;;;5080695;28;20460;-75
2023/09/16 09:07:55;;;;;;;5.70;5.20;;;;;;;;;;5073181;28;20455;-76
2023/09/16 09:10:23;;;;;;;5.93;5.43;;;;;;;;;;5072665;28;20479;-75
2023/09/16 09:12:50;;;;;;;5.53;5.03;;;;;;;;;;5072857;28;20549;-75
2023/09/16 09:15:18;;;;;;;6.10;5.60;;;;;;;;;;5072824;28;20482;-75
2023/09/16 09:17:46;;;;;;;6.07;4.60;;;;;;;;;;5072717;28;20476;-74
2023/09/16 09:20:15;;;;;;;6.97;5.73;;;;;;;;;;5080715;28;20471;-77
2023/09/16 09:22:43;;;;;;;6.20;5.60;;;;;;;;;;5072623;28;20496;-77
2023/09/16 09:25:10;;;;;;;6.53;6.03;;;;;;;;;;5080967;28;20947;-75
2023/09/16 09:27:39;;;;;;;5.30;4.80;;;;;;;;;;5072549;28;20450;-75
2023/09/16 09:30:06;;;;;;;7.30;5.10;;;;;;;;;;5072207;28;20566;-75
2023/09/16 09:32:34;;;;;;;6.17;5.63;;;;;;;;;;5072558;28;20826;-74
2023/09/16 09:35:06;;;;;;;5.60;5.10;;;;;;;;;;5080842;28;20461;-75
2023/09/16 09:37:34;;;;;;;5.90;5.27;;;;;;;;;;5072672;28;20448;-75
2023/09/16 09:40:08;;;;;;;5.80;5.20;;;;;;;;;;5071993;28;20475;-76
2023/09/16 09:42:41;;;;;;;6.57;5.90;;;;;;;;;;5072239;28;20496;-76
2023/09/16 09:45:09;;;;;;;7.00;5.57;;;;;;;;;;5089159;28;20987;-75
2023/09/16 09:47:36;;;;;;;7.00;6.30;;;;;;;;;;5077655;28;21006;-77
2023/09/16 09:50:04;;;;;;;6.10;5.23;;;;;;;;;;5083112;28;20480;-77
2023/09/16 09:52:31;;;;;;;7.00;6.40;;;;;;;;;;5080511;28;20448;-77
2023/09/16 09:54:58;;;;;;;8.80;4.83;;;;;;;;;;5080558;28;20832;-77
2023/09/16 09:57:27;;;;;;;6.77;6.13;;;;;;;;;;5072288;28;20470;-76
2023/09/16 09:59:56;;;;;;;6.93;5.90;;;;;;;;;;5080093;28;20483;-76
2023/09/16 10:02:26;;;;;;;6.00;5.13;;;;;;;;;;5063938;28;20525;-76
2023/09/16 10:04:58;;;;;;;9.60;6.90;;;;;;;;;;5072065;28;20957;-76
2023/09/16 10:07:26;;;;;;;6.90;4.77;;;;;;;;;;5080442;28;20926;-76
2023/09/16 10:09:53;;;;;;;6.67;5.93;;;;;;;;;;5071384;28;20997;-76
2023/09/16 10:12:21;;;;;;;7.30;5.70;;;;;;;;;;5072220;28;20513;-77
2023/09/16 10:14:48;;;;;;;5.67;5.07;;;;;;;;;;5087359;28;20455;-76
2023/09/16 10:17:16;;;;;;;9.17;5.97;;;;;;;;;;5081265;28;20448;-76
2023/09/16 10:19:44;;;;;;;6.33;5.70;;;;;;;;;;5080011;28;20471;-78
2023/09/16 10:22:11;;;;;;;6.40;5.33;;;;;;;;;;5080695;28;20507;-77
2023/09/16 10:24:40;;;;;;;5.33;4.83;;;;;;;;;;5072177;28;20565;-77
2023/09/16 10:27:10;;;;;;;12.17;5.47;;;;;;;;;;5080169;28;20455;-77
2023/09/16 10:29:38;;;;;;;7.60;5.40;;;;;;;;;;5077174;28;20478;-77
2023/09/16 10:32:07;;;;;;;6.17;5.67;;;;;;;;;;5083406;28;20463;-76
2023/09/16 10:34:36;;;;;;;5.93;5.43;;;;;;;;;;5086924;28;20904;-76
2023/09/16 10:37:03;;;;;;;5.60;5.00;;;;;;;;;;5072177;28;20463;-76
2023/09/16 10:39:33;;;;;;;4.70;4.30;;;;;;;;;;5071544;28;20843;-76
2023/09/16 10:42:01;;;;;;;12.83;5.10;;;;;;;;;;5072068;28;20448;-75
2023/09/16 10:44:29;;;;;;;5.40;4.87;;;;;;;;;;5071669;28;20506;-76
2023/09/16 10:46:56;;;;;;;5.40;4.90;;;;;;;;;;5072070;28;20460;-77
2023/09/16 10:49:23;;;;;;;5.00;4.60;;;;;;;;;;5075180;28;20457;-77
2023/09/16 10:51:53;;;;;;;9.03;4.20;;;;;;;;;;5076132;28;20443;-76
2023/09/16 10:54:26;;;;;;;8.37;5.73;;;;;;;;;;5080248;28;20455;-76
2023/09/16 10:56:56;;;;;;;5.87;5.27;;;;;;;;;;5071813;28;20768;-77
2023/09/16 10:59:26;;;;;;;5.40;4.83;;;;;;;;;;5079690;28;20466;-76
2023/09/16 11:01:58;;;;;;;6.73;5.40;;;;;;;;;;5080613;28;21016;-76
2023/09/16 11:04:25;;;;;;;4.30;4.00;;;;;;;;;;5084017;28;21038;-77
2023/09/16 11:06:56;;;;;;;6.13;5.07;;;;;;;;;;5084019;28;20459;-77
2023/09/16 11:09:24;;;;;;;5.07;4.50;;;;;;;;;;5072296;28;20448;-76
2023/09/16 11:11:52;;;;;;;5.03;4.53;;;;;;;;;;5080828;28;20448;-77
2023/09/16 11:14:20;;;;;;;5.77;4.30;;;;;;;;;;5088987;28;20938;-77
2023/09/16 11:16:49;;;;;;;5.03;4.53;;;;;;;;;;5080734;28;20447;-77
2023/09/16 11:19:17;;;;;;;6.00;5.50;;;;;;;;;;5083763;28;20469;-77
2023/09/16 11:21:45;;;;;;;5.20;4.70;;;;;;;;;;5087139;28;20933;-78
2023/09/16 11:24:13;;;;;;;5.43;4.93;;;;;;;;;;5086035;28;20494;-78
2023/09/16 11:26:41;;;;;;;4.97;4.57;;;;;;;;;;5084468;28;20451;-77
2023/09/16 11:29:17;;;;;;;5.43;4.97;;;;;;;;;;5083658;28;20447;-76
2023/09/16 11:31:44;;;;;;;9.83;4.20;;;;;;;;;;5090622;28;20500;-77
2023/09/16 11:34:12;;;;;;;5.17;4.77;;;;;;;;;;5084901;28;20569;-77
2023/09/16 11:36:43;;;;;;;5.03;4.63;;;;;;;;;;5081874;28;20467;-77
2023/09/16 11:39:18;;;;;;;6.20;4.20;;;;;;;;;;5078183;28;20455;-77
2023/09/16 11:41:45;;;;;;;4.53;4.17;;;;;;;;;;5081877;28;20444;-78
2023/09/16 11:44:13;;;;;;;4.93;4.53;;;;;;;;;;5083781;28;20484;-77
2023/09/16 11:46:40;;;;;;;4.93;4.50;;;;;;;;;;5084475;28;20451;-75
2023/09/16 11:49:08;;;;;;;4.83;4.30;;;;;;;;;;5078702;28;20934;-75
2023/09/16 11:51:36;;;;;;;5.10;4.60;;;;;;;;;;5078494;28;20469;-76
2023/09/16 11:54:04;;;;;;;4.53;4.13;;;;;;;;;;5075039;28;20505;-75
2023/09/16 11:56:34;;;;;;;5.17;4.70;;;;;;;;;;5076844;28;20962;-75
2023/09/16 11:59:02;;;;;;;5.90;4.67;;;;;;;;;;5082916;28;20832;-75
2023/09/16 12:01:31;;;;;;;4.53;4.13;;;;;;;;;;5076882;28;20870;-76
2023/09/16 12:03:58;;;;;;;5.63;4.03;;;;;;;;;;5073284;28;20491;-76
2023/09/16 12:06:26;;;;;;;4.40;3.70;;;;;;;;;;5073092;28;20467;-76
2023/09/16 12:08:55;;;;;;;4.40;4.00;;;;;;;;;;5073850;28;20448;-76
2023/09/16 12:11:22;;;;;;;4.73;4.07;;;;;;;;;;5077341;28;20474;-75
2023/09/16 12:13:53;;;;;;;4.60;4.20;;;;;;;;;;5082062;28;20471;-76
2023/09/16 12:16:20;;;;;;;4.83;4.43;;;;;;;;;;5074755;28;20455;-77
2023/09/16 12:18:47;;;;;;;4.77;4.37;;;;;;;;;;5083296;28;20507;-76
2023/09/16 12:21:14;;;;;;;4.10;3.70;;;;;;;;;;5092956;28;20470;-77
2023/09/16 12:23:42;;;;;;;4.50;4.10;;;;;;;;;;5078160;28;20483;-77
2023/09/16 12:26:09;;;;;;;4.17;3.80;;;;;;;;;;5073722;28;20452;-77
2023/09/16 12:28:37;;;;;;;4.60;4.13;;;;;;;;;;5073464;28;20501;-77
2023/09/16 12:31:08;;;;;;;4.37;3.97;;;;;;;;;;5074268;28;20472;-76
2023/09/16 12:33:39;;;;;;;5.47;4.70;;;;;;;;;;5081483;28;20535;-77
2023/09/16 12:36:07;;;;;;;4.40;4.00;;;;;;;;;;5082590;28;20827;-77
2023/09/16 12:38:34;;;;;;;4.97;4.47;;;;;;;;;;5073537;28;20440;-77
2023/09/16 12:41:02;;;;;;;7.23;4.43;;;;;;;;;;5073371;28;20470;-77
2023/09/16 12:43:29;;;;;;;5.73;5.23;;;;;;;;;;5073572;28;20493;-76
2023/09/16 12:45:57;;;;;;;4.90;4.60;;;;;;;;;;5073366;28;20474;-77
2023/09/16 12:48:26;;;;;;;5.20;4.80;;;;;;;;;;5078385;28;20455;-77
2023/09/16 12:50:53;;;;;;;5.07;4.57;;;;;;;;;;5073034;28;20595;-76
2023/09/16 12:53:20;;;;;;;7.90;4.50;;;;;;;;;;5073119;28;20824;-77
2023/09/16 12:55:48;;;;;;;6.37;4.57;;;;;;;;;;5073552;28;20456;-77
2023/09/16 12:58:17;;;;;;;5.20;4.70;;;;;;;;;;5076484;28;20456;-77
2023/09/16 13:00:44;;;;;;;7.20;4.13;;;;;;;;;;5072897;28;20482;-77
2023/09/16 13:03:11;;;;;;;5.10;4.60;;;;;;;;;;5072976;28;20453;-77
2023/09/16 13:05:39;;;;;;;5.20;4.70;;;;;;;;;;5072999;28;20799;-76
2023/09/16 13:08:08;;;;;;;4.43;3.67;;;;;;;;;;5082297;28;20448;-76
2023/09/16 13:10:35;;;;;;;5.10;4.70;;;;;;;;;;5077442;28;20480;-76
2023/09/16 13:13:02;;;;;;;4.83;4.43;;;;;;;;;;5073130;28;20456;-76
2023/09/16 13:15:30;;;;;;;6.20;4.43;;;;;;;;;;5074927;28;20948;-77
2023/09/16 13:17:59;;;;;;;4.60;4.20;;;;;;;;;;5073445;28;20483;-77
2023/09/16 13:20:27;;;;;;;8.67;4.80;;;;;;;;;;5081196;28;20475;-75
2023/09/16 13:22:59;;;;;;;5.77;5.27;;;;;;;;;;5081075;28;20802;-76
2023/09/16 13:25:32;;;;;;;5.40;5.00;;;;;;;;;;5069604;28;21007;-76
2023/09/16 13:28:06;;;;;;;9.20;5.13;;;;;;;;;;5072973;28;20444;-76
2023/09/16 13:30:35;;;;;;;4.63;4.23;;;;;;;;;;5072925;28;20612;-75
2023/09/16 13:33:02;;;;;;;5.67;5.13;;;;;;;;;;5081613;28;20451;-76
2023/09/16 13:35:30;;;;;;;5.07;4.50;;;;;;;;;;5072086;28;20517;-76
2023/09/16 13:37:58;;;;;;;4.70;4.30;;;;;;;;;;5075850;28;20444;-77
2023/09/16 13:40:25;;;;;;;5.03;4.63;;;;;;;;;;5064383;28;20482;-77
2023/09/16 13:42:53;;;;;;;5.53;4.23;;;;;;;;;;5072418;28;20466;-77
2023/09/16 13:45:20;;;;;;;4.67;4.30;;;;;;;;;;5071665;28;20521;-75
2023/09/16 13:48:04;;;;;;;4.60;4.20;;;;;;;;;;5072264;28;20452;-77
2023/09/16 13:50:31;;;;;;;4.40;4.10;;;;;;;;;;5067562;28;20479;-77
2023/09/16 13:53:00;;;;;;;5.40;4.90;;;;;;;;;;5072219;28;20440;-78
2023/09/16 13:55:27;;;;;;;5.07;4.67;;;;;;;;;;5072439;28;20440;-77
2023/09/16 13:57:56;;;;;;;5.67;5.20;;;;;;;;;;5072691;28;20501;-78
2023/09/16 14:00:23;;;;;;;5.53;4.60;;;;;;;;;;5072353;28;20475;-77
2023/09/16 14:02:50;;;;;;;4.87;4.47;;;;;;;;;;5072410;28;20443;-77
2023/09/16 14:05:17;;;;;;;5.30;4.90;;;;;;;;;;5071775;28;20499;-76
2023/09/16 14:07:44;;;;;;;4.60;4.20;;;;;;;;;;5080851;28;20459;-77
2023/09/16 14:10:13;;;;;;;4.90;4.50;;;;;;;;;;5085374;28;20467;-77
2023/09/16 14:12:40;;;;;;;5.07;4.67;;;;;;;;;;5078192;28;20522;-76
2023/09/16 14:15:07;;;;;;;4.57;4.17;;;;;;;;;;5074114;28;20934;-77
2023/09/16 14:17:35;;;;;;;4.80;4.40;;;;;;;;;;5071976;28;20452;-77
2023/09/16 14:20:03;;;;;;;5.00;4.60;;;;;;;;;;5079717;28;20467;-76
2023/09/16 14:22:30;;;;;;;5.10;4.60;;;;;;;;;;5071812;28;20870;-76
2023/09/16 14:24:57;;;;;;;5.50;5.00;;;;;;;;;;5078915;28;20495;-77
2023/09/16 14:27:26;;;;;;;7.07;6.47;;;;;;;;;;5075599;28;20470;-76
2023/09/16 14:29:53;;;;;;;8.63;4.60;;;;;;;;;;5076425;28;20471;-77
2023/09/16 14:32:20;;;;;;;4.67;4.27;;;;;;;;;;5072005;28;20459;-77
2023/09/16 14:34:47;;;;;;;14.57;13.20;;;;;;;;;;5071775;28;20542;-76